Salters, South Carolina
Current Conditions -  °F | °C
As of 7:15 PM on Sunday 23 Nov 2014 (Local Time) from KCKI Reporting Station
Light Rain Light Rain  
Wind Chill: 68°   Ceiling: NA
Heat Index: 68°   Visibility: 10mi
Dew Point: 68°   Wind: 17mph
Humidity: 100%   Direction: 110°ESE
Pressure: 29.84"   Gusts: NA
Location:  33.59°N, 79.86°W
Report Text: KCKI 240015Z AUTO 11015KT 10SM -RA 20/20 A2984 RMK AO2 LTG DSNT S AND SW P0001
Loading
Personal Weather Stations






























Interactive Weather Map New forecast layout! Learn more

10-Day Weather Forecast

Advertisements
Track Severe Weather on mobile